Terminal Aerodrome Forecast
Issued by NWS

Home | Current Version | Previous Version | Graphics & Text | Print | Product List | Glossary On
Versions: 1 2 3 4 5 6 7 8 9 10 11 12
465
FTUS43 KOAX 211122
TAFCDR
TAF
KCDR 211122Z 2112/2212 VRB05KT P6SM SKC
     FM211400 32011KT P6SM SKC
     FM212000 01008KT P6SM SKC
     FM220000 08007KT P6SM SCT150 BKN250=

USA.gov is the U.S. government's official web portal to all federal, state and local government web resources and services.